createdAt,value
2019-02-10T00:00:32.532Z,11.30
2019-02-10T00:04:40.081Z,10.25
2019-02-10T00:08:47.643Z,10.13
2019-02-10T00:13:13.584Z,9.93
2019-02-10T00:17:21.145Z,9.38
2019-02-10T00:21:28.705Z,9.45
2019-02-10T00:25:36.248Z,8.70
2019-02-10T00:29:43.814Z,9.60
2019-02-10T00:33:51.371Z,9.60
2019-02-10T00:37:58.934Z,8.93
2019-02-10T00:42:06.492Z,9.73
2019-02-10T00:46:14.044Z,9.40
2019-02-10T00:50:21.601Z,10.05
2019-02-10T00:54:29.163Z,9.65
2019-02-10T00:58:36.716Z,9.38
2019-02-10T01:02:44.276Z,9.90
2019-02-10T01:06:51.819Z,9.58
2019-02-10T01:10:59.387Z,9.48
2019-02-10T01:15:07.046Z,9.18
2019-02-10T01:19:14.607Z,9.10
2019-02-10T01:23:22.160Z,8.68
2019-02-10T01:27:29.721Z,9.53
2019-02-10T01:31:37.272Z,9.00
2019-02-10T01:35:44.831Z,8.93
2019-02-10T01:39:54.198Z,9.75
2019-02-10T01:44:01.593Z,8.80
2019-02-10T01:48:09.152Z,7.90
2019-02-10T01:52:16.704Z,8.45
2019-02-10T01:56:24.255Z,8.18
2019-02-10T02:00:31.820Z,7.35
2019-02-10T02:04:39.359Z,7.45
2019-02-10T02:08:46.915Z,8.05
2019-02-10T02:12:54.468Z,8.08
2019-02-10T02:17:02.024Z,8.03
2019-02-10T02:21:09.612Z,8.43
2019-02-10T02:25:17.181Z,8.53
2019-02-10T02:29:24.723Z,8.18
2019-02-10T02:33:32.289Z,8.23
2019-02-10T02:37:39.835Z,7.92
2019-02-10T02:41:47.385Z,7.85
2019-02-10T02:45:54.964Z,8.48
2019-02-10T02:50:02.522Z,8.75
2019-02-10T02:54:10.056Z,8.43
2019-02-10T02:58:17.627Z,8.13
2019-02-10T03:02:25.225Z,8.38
2019-02-10T03:06:34.351Z,8.20
2019-02-10T03:10:41.910Z,8.50
2019-02-10T03:14:49.458Z,7.80
2019-02-10T03:18:57.012Z,8.20
2019-02-10T03:23:04.566Z,7.97
2019-02-10T03:27:12.117Z,7.75
2019-02-10T03:31:19.694Z,7.30
2019-02-10T03:35:27.240Z,6.85
2019-02-10T03:39:34.798Z,7.22
2019-02-10T03:43:42.357Z,7.60
2019-02-10T03:47:49.920Z,8.43
2019-02-10T03:51:57.476Z,7.25
2019-02-10T03:56:05.022Z,8.45
2019-02-10T04:00:12.688Z,7.90
2019-02-10T04:04:20.260Z,7.55
2019-02-10T04:08:27.816Z,8.08
2019-02-10T04:12:35.372Z,8.68
2019-02-10T04:16:42.933Z,8.10
2019-02-10T04:20:50.480Z,7.90
2019-02-10T04:24:58.037Z,7.53
2019-02-10T04:29:05.594Z,7.92
2019-02-10T04:33:13.149Z,6.83
2019-02-10T04:37:20.707Z,6.65
2019-02-10T04:41:28.257Z,7.37
2019-02-10T04:45:35.821Z,7.55
2019-02-10T04:49:43.376Z,6.72
2019-02-10T04:53:50.929Z,6.40
2019-02-10T04:57:58.484Z,6.83
2019-02-10T05:02:06.036Z,6.92
2019-02-10T05:06:13.602Z,6.58
2019-02-10T05:10:21.816Z,6.78
2019-02-10T05:14:29.431Z,6.70
2019-02-10T05:18:36.974Z,6.58
2019-02-10T05:22:44.526Z,6.10
2019-02-10T05:26:52.077Z,6.40
2019-02-10T05:30:59.633Z,6.47
2019-02-10T05:35:07.191Z,6.97
2019-02-10T05:39:14.748Z,6.97
2019-02-10T05:43:22.294Z,7.40
2019-02-10T05:47:29.851Z,7.50
2019-02-10T05:51:37.412Z,8.25
2019-02-10T05:55:44.954Z,7.45
2019-02-10T05:59:52.530Z,7.97
2019-02-10T06:04:00.136Z,8.30
2019-02-10T06:08:13.461Z,7.95
2019-02-10T06:12:16.906Z,8.23
2019-02-10T06:16:24.465Z,8.48
2019-02-10T06:20:32.033Z,7.00
2019-02-10T06:24:39.665Z,8.25
2019-02-10T06:28:47.249Z,8.05
2019-02-10T06:32:54.822Z,8.38
2019-02-10T06:37:02.370Z,8.98
2019-02-10T06:41:09.945Z,8.40
2019-02-10T06:45:17.581Z,9.00
2019-02-10T06:49:25.162Z,8.65
2019-02-10T06:53:32.727Z,9.03
2019-02-10T06:57:40.302Z,8.98
2019-02-10T07:01:52.256Z,9.28
2019-02-10T07:05:59.825Z,8.93
2019-02-10T07:10:07.588Z,7.92
2019-02-10T07:14:19.280Z,8.30
2019-02-10T07:18:45.235Z,8.15
2019-02-10T07:22:54.512Z,7.62
2019-02-10T07:27:19.129Z,8.30
2019-02-10T07:31:26.694Z,9.33
2019-02-10T07:35:48.071Z,7.90
2019-02-10T07:39:57.184Z,8.58
2019-02-10T07:44:08.997Z,7.85
2019-02-10T07:48:24.180Z,8.15
2019-02-10T07:52:42.096Z,8.35
2019-02-10T07:56:54.232Z,8.30
2019-02-10T08:01:03.343Z,8.98
2019-02-10T08:05:18.640Z,8.08
2019-02-10T08:09:27.765Z,8.58
2019-02-10T08:13:45.901Z,8.98
2019-02-10T08:17:55.040Z,7.90
2019-02-10T08:22:10.002Z,8.38
2019-02-10T08:26:19.138Z,7.95
2019-02-10T08:30:40.508Z,7.87
2019-02-10T08:34:58.508Z,7.65
2019-02-10T08:39:26.114Z,7.78
2019-02-10T08:43:44.393Z,7.90
2019-02-10T08:48:02.499Z,8.73
2019-02-10T08:52:20.709Z,8.35
2019-02-10T08:56:28.270Z,8.33
2019-02-10T09:00:35.846Z,8.33
2019-02-10T09:04:43.405Z,8.75
2019-02-10T09:08:51.007Z,8.58
2019-02-10T09:12:58.567Z,8.60
2019-02-10T09:17:06.157Z,53.48
2019-02-10T09:21:13.751Z,116.33
2019-02-10T09:25:21.315Z,81.75
2019-02-10T09:29:28.898Z,103.17
2019-02-10T09:33:36.816Z,100.20
2019-02-10T09:37:44.441Z,107.80
2019-02-10T09:41:52.024Z,91.65
2019-02-10T09:45:59.572Z,84.70
2019-02-10T09:50:08.948Z,79.58
2019-02-10T09:54:16.521Z,60.58
2019-02-10T09:58:24.092Z,55.03
2019-02-10T10:02:31.661Z,52.73
2019-02-10T10:06:39.216Z,48.13
2019-02-10T10:10:46.780Z,44.38
2019-02-10T10:14:54.348Z,41.80
2019-02-10T10:19:01.912Z,39.40
2019-02-10T10:23:09.471Z,35.65
2019-02-10T10:27:17.047Z,33.85
2019-02-10T10:31:24.608Z,31.35
2019-02-10T10:35:32.175Z,28.73
2019-02-10T10:39:39.745Z,28.40
2019-02-10T10:43:47.308Z,26.05
2019-02-10T10:47:54.869Z,25.65
2019-02-10T10:52:02.476Z,22.90
2019-02-10T10:56:10.032Z,21.73
2019-02-10T11:00:17.606Z,22.10
2019-02-10T11:04:25.168Z,19.50
2019-02-10T11:08:32.737Z,18.40
2019-02-10T11:12:40.366Z,17.77
2019-02-10T11:16:47.923Z,16.75
2019-02-10T11:20:55.490Z,15.15
2019-02-10T11:25:03.062Z,15.80
2019-02-10T11:29:10.619Z,14.03
2019-02-10T11:33:18.188Z,13.58
2019-02-10T11:37:26.849Z,12.35
2019-02-10T11:41:34.712Z,11.57
2019-02-10T11:45:42.276Z,10.80
2019-02-10T11:49:49.845Z,11.30
2019-02-10T11:54:00.877Z,11.25
2019-02-10T11:58:08.429Z,10.50
2019-02-10T12:02:16.001Z,10.18
2019-02-10T12:06:23.563Z,10.48
2019-02-10T12:10:31.158Z,10.58
2019-02-10T12:14:38.755Z,9.88
2019-02-10T12:18:46.308Z,9.73
2019-02-10T12:22:53.874Z,9.78
2019-02-10T12:27:01.428Z,9.68
2019-02-10T12:31:08.992Z,9.60
2019-02-10T12:35:16.555Z,8.98
2019-02-10T12:39:24.116Z,8.83
2019-02-10T12:43:31.672Z,8.65
2019-02-10T12:47:39.228Z,7.95
2019-02-10T12:51:46.791Z,7.92
2019-02-10T12:55:54.356Z,7.42
2019-02-10T13:00:01.909Z,7.35
2019-02-10T13:04:09.489Z,7.87
2019-02-10T13:08:17.035Z,8.03
2019-02-10T13:12:24.608Z,7.55
2019-02-10T13:16:32.168Z,6.67
2019-02-10T13:20:39.731Z,8.08
2019-02-10T13:24:47.329Z,8.05
2019-02-10T13:28:54.901Z,8.25
2019-02-10T13:33:02.459Z,9.23
2019-02-10T13:37:10.016Z,9.15
2019-02-10T13:41:17.578Z,9.43
2019-02-10T13:45:25.144Z,10.98
2019-02-10T13:49:32.741Z,10.75
2019-02-10T13:53:40.279Z,10.58
2019-02-10T13:57:47.840Z,10.60
2019-02-10T14:01:55.413Z,11.63
2019-02-10T14:06:02.976Z,11.68
2019-02-10T14:10:11.742Z,12.30
2019-02-10T14:14:19.353Z,11.90
2019-02-10T14:18:26.946Z,14.83
2019-02-10T14:22:34.560Z,15.75
2019-02-10T14:26:42.069Z,14.85
2019-02-10T14:30:49.627Z,15.05
2019-02-10T14:34:57.260Z,14.75
2019-02-10T14:39:05.221Z,15.55
2019-02-10T14:43:12.785Z,23.32
2019-02-10T14:47:20.346Z,30.00
2019-02-10T14:51:27.905Z,28.23
2019-02-10T14:55:35.459Z,28.25
2019-02-10T14:59:43.029Z,28.70
2019-02-10T15:03:50.596Z,24.80
2019-02-10T15:07:58.148Z,26.77
2019-02-10T15:12:05.703Z,24.50
2019-02-10T15:16:13.263Z,20.60
2019-02-10T15:20:20.833Z,22.02
2019-02-10T15:24:28.392Z,21.35
2019-02-10T15:28:35.961Z,20.80
2019-02-10T16:40:35.518Z,20.43
2019-02-10T16:42:18.998Z,21.00
2019-02-10T16:44:23.092Z,20.88
2019-02-10T16:44:56.573Z,22.00
2019-02-10T16:45:30.063Z,21.42
2019-02-10T16:55:47.439Z,31.05
2019-02-10T16:56:20.926Z,35.45
2019-02-10T16:56:54.427Z,22.27
2019-02-10T16:57:27.910Z,34.08
2019-02-10T16:58:01.396Z,33.40
2019-02-10T16:58:34.896Z,62.08
2019-02-10T16:59:08.387Z,86.87
2019-02-10T16:59:41.867Z,76.15
2019-02-10T17:00:16.266Z,47.10
2019-02-10T17:00:49.741Z,39.67
2019-02-10T17:01:23.231Z,53.85
2019-02-10T17:01:56.711Z,43.13
2019-02-10T17:02:30.186Z,21.50
2019-02-10T17:03:03.667Z,20.05
2019-02-10T17:03:37.151Z,7.72
2019-02-10T17:04:10.646Z,47.13
2019-02-10T17:04:44.131Z,72.90
2019-02-10T17:05:17.623Z,59.45
2019-02-10T17:05:51.106Z,95.12
2019-02-10T17:06:24.593Z,25.82
2019-02-10T17:06:58.077Z,48.85
2019-02-10T17:07:31.563Z,63.38
2019-02-10T17:08:05.046Z,39.05
2019-02-10T17:08:38.528Z,90.17
2019-02-10T17:09:12.094Z,57.20
2019-02-10T17:09:45.572Z,34.78
2019-02-10T17:10:22.368Z,35.03
2019-02-10T17:10:55.854Z,44.77
2019-02-10T17:11:29.337Z,53.30
2019-02-10T17:12:02.815Z,46.60
2019-02-10T17:12:36.311Z,48.48
2019-02-10T17:13:09.794Z,45.23
2019-02-10T17:13:43.292Z,41.85
2019-02-10T17:14:16.773Z,43.83
2019-02-10T17:14:50.263Z,49.03
2019-02-10T17:15:23.748Z,51.55
2019-02-10T17:16:04.784Z,57.70
2019-02-10T17:16:32.495Z,60.48
2019-02-10T17:17:05.979Z,54.83
2019-02-10T17:17:39.491Z,59.05
2019-02-10T17:18:12.985Z,56.88
2019-02-10T17:18:46.477Z,48.10
2019-02-10T17:19:19.980Z,47.58
2019-02-10T17:19:53.470Z,45.05
2019-02-10T17:20:26.945Z,42.43
2019-02-10T17:21:00.425Z,40.15
2019-02-10T17:21:33.923Z,42.20
2019-02-10T17:22:07.401Z,50.70
2019-02-10T17:22:41.195Z,67.25
2019-02-10T17:23:14.682Z,78.20
2019-02-10T17:23:48.163Z,88.20
2019-02-10T17:24:21.656Z,91.35
2019-02-10T17:24:55.139Z,87.82
2019-02-10T17:25:29.723Z,87.05
2019-02-10T17:26:03.216Z,79.77
2019-02-10T17:26:36.708Z,72.50
2019-02-10T17:27:10.236Z,59.38
2019-02-10T17:27:43.714Z,45.85
2019-02-10T17:28:17.196Z,54.15
2019-02-10T17:28:50.688Z,63.63
2019-02-10T17:29:24.178Z,78.50
2019-02-10T17:32:09.428Z,73.33
2019-02-10T17:34:37.922Z,36.83
2019-02-10T17:37:06.415Z,26.80
2019-02-10T17:39:34.916Z,32.38
2019-02-10T17:42:03.399Z,46.68
2019-02-10T17:44:31.892Z,36.45
2019-02-10T17:47:00.399Z,57.75
2019-02-10T17:49:28.894Z,41.75
2019-02-10T17:51:57.385Z,33.78
2019-02-10T17:54:25.872Z,27.70
2019-02-10T17:56:54.362Z,59.33
2019-02-10T17:59:22.846Z,33.10
2019-02-10T18:01:51.343Z,49.10
2019-02-10T18:04:19.857Z,147.75
2019-02-10T19:14:55.856Z,45.78
2019-02-10T19:17:25.923Z,36.20
2019-02-10T19:20:12.476Z,39.83
2019-02-10T19:22:57.782Z,61.58
2019-02-10T19:25:30.540Z,82.47
2019-02-10T19:28:06.347Z,60.83
2019-02-10T19:30:36.410Z,56.92
2019-02-10T19:33:06.466Z,53.00
2019-02-10T19:35:45.839Z,49.63
2019-02-10T19:38:30.963Z,76.90
2019-02-10T19:41:01.025Z,44.45
2019-02-10T19:43:43.087Z,44.67
2019-02-10T19:46:13.191Z,41.13
2019-02-10T19:48:55.477Z,36.10
2019-02-10T19:51:28.512Z,53.05
2019-02-10T19:54:04.652Z,45.15
2019-02-10T19:56:43.551Z,39.50
2019-02-10T19:59:16.055Z,38.92
2019-02-10T20:01:52.178Z,55.80
2019-02-10T20:04:34.143Z,44.45
2019-02-10T20:07:06.983Z,40.58
2019-02-10T20:09:53.600Z,42.53
2019-02-10T20:12:26.927Z,38.58
2019-02-10T20:14:59.964Z,51.18
2019-02-10T20:17:38.919Z,43.98
2019-02-10T20:20:10.985Z,38.65
2019-02-10T20:22:49.951Z,53.52
2019-02-10T20:25:22.490Z,44.30
2019-02-10T20:28:01.266Z,75.35
2019-02-10T20:30:40.682Z,55.83
2019-02-10T20:33:10.745Z,59.77
2019-02-10T20:35:49.338Z,85.53
2019-02-10T20:38:34.391Z,139.25
2019-02-10T20:41:10.313Z,82.22
2019-02-10T20:43:43.457Z,88.85
2019-02-10T20:46:13.525Z,107.95
2019-02-10T20:48:43.584Z,74.40
2019-02-10T20:51:19.749Z,57.27
2019-02-10T20:53:58.608Z,36.55
2019-02-10T20:56:31.400Z,33.92
2019-02-10T20:59:04.563Z,31.07
2019-02-10T21:01:34.709Z,33.20
2019-02-10T21:04:20.936Z,97.10
2019-02-10T21:07:03.145Z,65.52
2019-02-10T21:09:33.203Z,38.05
2019-02-10T21:12:20.130Z,37.95
2019-02-10T21:14:44.138Z,36.05
2019-02-10T21:17:32.471Z,53.08
2019-02-10T21:20:20.939Z,50.50
2019-02-10T21:22:50.994Z,31.82
2019-02-10T21:25:36.327Z,36.50
2019-02-10T21:28:06.383Z,52.95
2019-02-10T21:30:36.458Z,68.57
2019-02-10T21:33:23.145Z,51.35
2019-02-10T21:35:59.227Z,61.95
2019-02-10T21:38:41.290Z,51.25
2019-02-10T21:41:14.567Z,47.58
2019-02-10T21:44:02.742Z,91.45
2019-02-10T21:46:35.753Z,40.30
2019-02-10T21:49:05.137Z,32.50
2019-02-10T21:51:33.626Z,51.90
2019-02-10T21:54:02.228Z,105.50
2019-02-10T21:56:30.723Z,50.52
2019-02-10T21:58:59.206Z,45.28
2019-02-10T22:01:27.702Z,41.63
2019-02-10T22:03:56.181Z,45.60
2019-02-10T22:06:24.702Z,54.20
2019-02-10T22:08:53.196Z,52.08
2019-02-10T22:11:21.693Z,56.00
2019-02-10T22:13:50.179Z,40.60
2019-02-10T22:16:18.709Z,36.55
2019-02-10T22:18:47.194Z,36.00
2019-02-10T22:21:15.720Z,34.40
2019-02-10T22:23:44.215Z,28.60
2019-02-10T22:26:12.697Z,24.02
2019-02-10T22:28:41.194Z,39.73
2019-02-10T22:31:09.721Z,41.73
2019-02-10T22:33:38.265Z,52.30
2019-02-10T22:36:06.753Z,49.27
2019-02-10T22:38:35.289Z,43.85
2019-02-10T22:41:03.744Z,51.02
2019-02-10T22:43:32.238Z,51.75
2019-02-10T22:46:00.727Z,42.80
2019-02-10T22:48:29.218Z,34.70
2019-02-10T22:50:57.707Z,35.92
2019-02-10T22:53:26.202Z,29.55
2019-02-10T22:55:54.701Z,32.03
2019-02-10T22:58:23.190Z,37.63
2019-02-10T23:00:57.752Z,32.98
2019-02-10T23:03:26.238Z,26.07
2019-02-10T23:05:54.745Z,25.52
2019-02-10T23:08:23.234Z,27.82
2019-02-10T23:10:52.063Z,27.67
2019-02-10T23:13:20.631Z,27.98
2019-02-10T23:15:49.158Z,27.98
2019-02-10T23:18:17.636Z,26.35
2019-02-10T23:20:46.118Z,22.50
2019-02-10T23:23:14.611Z,26.02
2019-02-10T23:25:43.142Z,26.35
2019-02-10T23:28:11.620Z,22.58
2019-02-10T23:30:40.157Z,22.77
2019-02-10T23:33:08.647Z,22.50
2019-02-10T23:35:37.133Z,21.45
2019-02-10T23:38:05.643Z,22.75
2019-02-10T23:40:34.127Z,22.75
2019-02-10T23:43:02.667Z,23.65
2019-02-10T23:45:31.154Z,23.95
2019-02-10T23:47:59.640Z,25.45
2019-02-10T23:50:28.135Z,33.15
2019-02-10T23:52:56.664Z,30.48
2019-02-10T23:55:25.159Z,26.50
2019-02-10T23:57:53.702Z,22.35
